KICT

Wichita Dwight D Eisenhower National Airport

Wichita, Kansas, USA
METAR KICT 230253Z 13009KT 10SM FEW200 24/19 A2997 RMK AO2 SLP137 T02440189 53011
Observed Flight Rules
May-23 @ 02:53 UTC (28 minutes ago) Visual Flight Rules
Wind Visibility Clouds
130° at 9 knots 10 miles
  • Few at 20,000' AGL
Temperatures Readings
Current 24°C / 75°F
Dewpoint 19°C / 66°F
Humidity 74%
Altimeter 29.97" Hg
Pressure 1013.7 hPa
Elevation 407
METAR KICT 230253Z 13009KT 10SM FEW200 24/19 A2997 RMK AO2 SLP137 T02440189 53011
Observed Flight Rules
May-23 @ 02:53 UTC
(28 minutes ago)
VFR
Wind Visibility
130° at 9 knots 10 miles
Clouds
  • Few at 20,000' AGL
Temperature Dewpoint
24°C / 75°F 19°C / 66°F
Humidity Altimeter Pressure
74% 29.97" Hg 1013.7 hPa